createdAt,value
2017-11-18T00:00:05.324Z,93.70
2017-11-18T00:02:32.815Z,114.47
2017-11-18T00:05:00.279Z,108.80
2017-11-18T00:07:27.748Z,95.90
2017-11-18T00:09:55.240Z,106.53
2017-11-18T00:12:22.720Z,109.37
2017-11-18T00:14:50.214Z,105.67
2017-11-18T00:17:17.674Z,107.20
2017-11-18T00:19:45.428Z,113.47
2017-11-18T00:22:12.897Z,115.60
2017-11-18T00:24:40.368Z,105.63
2017-11-18T00:27:07.862Z,131.10
2017-11-18T00:29:35.332Z,112.83
2017-11-18T00:32:02.829Z,108.43
2017-11-18T00:34:30.289Z,108.60
2017-11-18T00:36:57.775Z,110.03
2017-11-18T00:39:25.262Z,113.63
2017-11-18T00:41:52.739Z,121.03
2017-11-18T00:44:20.220Z,113.23
2017-11-18T00:46:47.690Z,103.13
2017-11-18T00:49:15.189Z,116.97
2017-11-18T00:51:42.681Z,114.50
2017-11-18T00:54:10.167Z,119.00
2017-11-18T00:56:37.655Z,105.43
2017-11-18T00:59:05.141Z,117.97
2017-11-18T01:01:32.615Z,119.00
2017-11-18T01:04:00.116Z,102.80
2017-11-18T01:06:27.610Z,115.17
2017-11-18T01:08:55.084Z,100.23
2017-11-18T01:11:22.581Z,107.87
2017-11-18T01:13:50.055Z,118.03
2017-11-18T01:16:17.552Z,131.73
2017-11-18T01:18:45.056Z,126.07
2017-11-18T01:21:12.555Z,101.17
2017-11-18T01:23:40.036Z,118.53
2017-11-18T01:26:07.511Z,116.13
2017-11-18T01:28:35.026Z,114.97
2017-11-18T01:31:02.495Z,113.87
2017-11-18T01:33:29.996Z,100.03
2017-11-18T01:35:57.459Z,93.33
2017-11-18T01:38:24.928Z,119.17
2017-11-18T01:40:52.413Z,114.13
2017-11-18T01:43:19.887Z,134.77
2017-11-18T01:45:47.385Z,120.80
2017-11-18T01:48:14.847Z,134.17
2017-11-18T01:50:42.331Z,122.50
2017-11-18T01:53:09.815Z,113.73
2017-11-18T01:55:37.304Z,112.73
2017-11-18T01:58:04.794Z,109.03
2017-11-18T02:00:32.267Z,104.27
2017-11-18T02:02:59.755Z,98.37
2017-11-18T02:05:27.225Z,136.60
2017-11-18T02:07:54.687Z,105.73
2017-11-18T02:10:22.176Z,114.57
2017-11-18T02:12:49.651Z,118.60
2017-11-18T02:15:17.122Z,110.77
2017-11-18T02:17:44.619Z,116.10
2017-11-18T02:20:12.082Z,108.47
2017-11-18T02:22:39.580Z,103.63
2017-11-18T02:25:07.049Z,124.37
2017-11-18T02:27:34.566Z,121.90
2017-11-18T02:30:02.038Z,119.80
2017-11-18T02:32:29.529Z,115.83
2017-11-18T02:34:57.023Z,139.17
2017-11-18T02:37:24.517Z,143.20
2017-11-18T02:39:52.009Z,120.10
2017-11-18T02:42:19.490Z,156.40
2017-11-18T02:44:46.946Z,115.60
2017-11-18T02:47:14.430Z,119.73
2017-11-18T02:49:41.920Z,146.63
2017-11-18T02:52:09.414Z,141.47
2017-11-18T02:54:36.890Z,114.23
2017-11-18T02:57:04.347Z,121.33
2017-11-18T02:59:31.835Z,163.93
2017-11-18T03:01:59.303Z,124.00
2017-11-18T03:04:26.773Z,106.93
2017-11-18T03:06:54.540Z,119.77
2017-11-18T03:09:22.011Z,121.50
2017-11-18T03:11:49.478Z,118.87
2017-11-18T03:14:16.966Z,124.43
2017-11-18T03:16:44.430Z,137.10
2017-11-18T03:19:11.915Z,117.20
2017-11-18T03:21:39.380Z,129.93
2017-11-18T03:24:06.844Z,136.83
2017-11-18T03:26:34.339Z,135.50
2017-11-18T03:29:01.816Z,123.97
2017-11-18T03:31:29.312Z,121.03
2017-11-18T03:33:56.775Z,109.10
2017-11-18T03:36:24.269Z,119.80
2017-11-18T03:38:51.784Z,115.83
2017-11-18T03:41:19.251Z,117.80
2017-11-18T03:43:46.751Z,143.03
2017-11-18T03:46:14.226Z,125.27
2017-11-18T03:48:41.723Z,132.67
2017-11-18T03:51:09.215Z,108.80
2017-11-18T03:53:36.686Z,125.83
2017-11-18T03:56:04.155Z,124.13
2017-11-18T03:58:31.655Z,114.23
2017-11-18T04:00:59.122Z,133.80
2017-11-18T04:03:26.604Z,140.07
2017-11-18T04:05:54.093Z,133.67
2017-11-18T04:08:21.555Z,156.10
2017-11-18T04:10:49.038Z,179.53
2017-11-18T04:13:16.514Z,128.07
2017-11-18T04:15:43.979Z,117.00
2017-11-18T04:18:11.460Z,105.03
2017-11-18T04:20:38.973Z,116.87
2017-11-18T04:23:06.459Z,122.90
2017-11-18T04:25:33.931Z,110.77
2017-11-18T04:28:01.418Z,115.60
2017-11-18T04:30:28.913Z,123.50
2017-11-18T04:32:56.374Z,99.63
2017-11-18T04:35:23.859Z,120.40
2017-11-18T04:37:51.358Z,102.60
2017-11-18T04:40:18.852Z,131.70
2017-11-18T04:42:46.343Z,108.70
2017-11-18T04:45:13.817Z,144.93
2017-11-18T04:47:41.288Z,107.73
2017-11-18T04:50:08.777Z,120.50
2017-11-18T04:52:36.243Z,119.03
2017-11-18T04:55:03.739Z,112.87
2017-11-18T04:57:31.208Z,122.03
2017-11-18T04:59:58.670Z,110.53
2017-11-18T05:02:26.159Z,110.37
2017-11-18T05:04:53.658Z,111.60
2017-11-18T05:07:21.117Z,101.10
2017-11-18T05:09:48.600Z,109.40
2017-11-18T05:12:16.078Z,121.40
2017-11-18T05:14:43.567Z,111.30
2017-11-18T05:17:11.040Z,120.70
2017-11-18T05:19:38.535Z,123.07
2017-11-18T05:22:06.022Z,109.20
2017-11-18T05:24:33.509Z,115.43
2017-11-18T05:27:01.010Z,117.10
2017-11-18T05:29:28.501Z,105.70
2017-11-18T05:31:56.208Z,112.57
2017-11-18T05:34:23.680Z,101.17
2017-11-18T05:36:51.149Z,110.73
2017-11-18T05:39:18.656Z,114.13
2017-11-18T05:41:46.144Z,97.47
2017-11-18T05:44:13.645Z,103.20
2017-11-18T05:46:41.363Z,102.90
2017-11-18T05:49:08.838Z,111.53
2017-11-18T05:51:36.337Z,109.30
2017-11-18T05:54:03.809Z,131.67
2017-11-18T05:56:31.310Z,122.33
2017-11-18T05:58:58.801Z,121.70
2017-11-18T06:01:26.647Z,123.70
2017-11-18T06:03:54.119Z,113.73
2017-11-18T06:06:21.598Z,111.23
2017-11-18T06:08:49.096Z,124.47
2017-11-18T06:11:16.565Z,109.40
2017-11-18T06:13:44.068Z,134.93
2017-11-18T06:16:11.555Z,118.37
2017-11-18T06:18:39.020Z,107.20
2017-11-18T06:21:06.510Z,129.70
2017-11-18T06:23:33.965Z,101.50
2017-11-18T06:26:01.455Z,117.70
2017-11-18T06:28:28.919Z,102.17
2017-11-18T06:30:56.415Z,115.37
2017-11-18T06:33:24.016Z,120.67
2017-11-18T06:35:51.499Z,89.97
2017-11-18T06:38:18.964Z,118.33
2017-11-18T06:40:46.423Z,99.70
2017-11-18T06:43:13.913Z,112.67
2017-11-18T06:45:41.391Z,106.60
2017-11-18T06:48:08.876Z,130.30
2017-11-18T06:50:36.367Z,117.73
2017-11-18T06:53:03.834Z,111.73
2017-11-18T06:55:31.327Z,112.30
2017-11-18T06:57:58.799Z,124.67
2017-11-18T07:00:26.255Z,99.33
2017-11-18T07:02:53.742Z,108.93
2017-11-18T07:05:21.207Z,121.23
2017-11-18T07:07:48.676Z,107.37
2017-11-18T07:10:16.166Z,123.47
2017-11-18T07:12:43.645Z,106.00
2017-11-18T07:15:11.140Z,108.33
2017-11-18T07:17:38.627Z,113.40
2017-11-18T07:20:06.088Z,93.00
2017-11-18T07:22:33.587Z,116.00
2017-11-18T07:25:01.055Z,129.47
2017-11-18T07:27:28.543Z,113.93
2017-11-18T07:29:56.012Z,115.47
2017-11-18T07:32:23.510Z,123.33
2017-11-18T07:34:50.981Z,109.50
2017-11-18T07:37:18.482Z,110.10
2017-11-18T07:39:45.964Z,105.67
2017-11-18T07:42:13.462Z,101.07
2017-11-18T07:44:40.939Z,88.43
2017-11-18T07:47:08.422Z,110.83
2017-11-18T07:49:35.883Z,98.00
2017-11-18T07:52:03.378Z,118.87
2017-11-18T07:54:30.839Z,106.20
2017-11-18T07:56:58.327Z,112.63
2017-11-18T07:59:25.821Z,103.73
2017-11-18T08:01:53.288Z,95.20
2017-11-18T08:04:20.767Z,101.80
2017-11-18T08:06:48.236Z,85.00
2017-11-18T08:09:15.719Z,98.17
2017-11-18T08:11:43.202Z,85.53
2017-11-18T08:14:10.670Z,134.32
2017-11-18T08:16:38.142Z,131.75
2017-11-18T08:19:05.647Z,149.52
2017-11-18T08:21:33.119Z,139.43
2017-11-18T08:24:00.615Z,127.05
2017-11-18T08:26:28.100Z,119.80
2017-11-18T08:28:55.572Z,127.05
2017-11-18T08:31:23.082Z,123.47
2017-11-18T08:33:50.547Z,139.80
2017-11-18T08:36:29.748Z,119.05
2017-11-18T08:38:57.215Z,155.75
2017-11-18T08:41:24.691Z,139.20
2017-11-18T08:43:52.184Z,134.02
2017-11-18T08:46:19.655Z,145.45
2017-11-18T08:48:47.147Z,133.90
2017-11-18T08:51:14.628Z,147.48
2017-11-18T08:53:42.351Z,123.13
2017-11-18T08:56:09.826Z,101.00
2017-11-18T08:58:37.286Z,119.67
2017-11-18T09:01:04.780Z,115.43
2017-11-18T09:03:32.238Z,99.93
2017-11-18T09:05:59.728Z,91.80
2017-11-18T09:08:27.212Z,139.33
2017-11-18T09:10:54.714Z,77.90
2017-11-18T09:13:22.203Z,109.77
2017-11-18T09:15:49.664Z,84.40
2017-11-18T09:18:17.150Z,92.07
2017-11-18T09:20:44.623Z,76.67
2017-11-18T09:23:12.123Z,134.30
2017-11-18T09:25:39.591Z,102.90
2017-11-18T09:28:07.058Z,97.77
2017-11-18T09:30:34.549Z,115.40
2017-11-18T09:33:02.016Z,85.00
2017-11-18T09:35:29.505Z,106.87
2017-11-18T09:37:56.980Z,122.30
2017-11-18T09:40:24.479Z,111.10
2017-11-18T09:42:51.937Z,85.97
2017-11-18T09:45:19.399Z,113.47
2017-11-18T09:47:46.883Z,113.27
2017-11-18T09:50:14.360Z,109.45
2017-11-18T09:52:41.847Z,90.03
2017-11-18T09:55:09.316Z,92.27
2017-11-18T09:57:36.799Z,72.60
2017-11-18T10:00:04.269Z,119.50
2017-11-18T10:02:31.748Z,114.18
2017-11-18T10:04:59.246Z,101.80
2017-11-18T10:07:26.733Z,95.50
2017-11-18T10:09:54.311Z,72.07
2017-11-18T10:12:21.775Z,102.17
2017-11-18T10:14:49.250Z,106.10
2017-11-18T10:17:16.755Z,97.30
2017-11-18T10:19:44.260Z,74.83
2017-11-18T10:22:11.719Z,108.93
2017-11-18T10:24:39.222Z,91.90
2017-11-18T10:27:06.705Z,82.20
2017-11-18T10:29:34.174Z,86.43
2017-11-18T10:32:01.667Z,97.30
2017-11-18T10:34:29.133Z,98.87
2017-11-18T10:36:56.631Z,142.50
2017-11-18T10:39:24.131Z,120.53
2017-11-18T10:41:51.628Z,125.57
2017-11-18T10:44:19.099Z,94.80
2017-11-18T10:46:46.583Z,95.87
2017-11-18T10:49:14.075Z,109.50
2017-11-18T10:51:41.563Z,93.57
2017-11-18T10:54:09.041Z,91.00
2017-11-18T10:56:36.511Z,79.93
2017-11-18T10:59:04.009Z,72.60
2017-11-18T11:01:31.503Z,96.87
2017-11-18T11:03:58.958Z,81.97
2017-11-18T11:06:26.451Z,82.50
2017-11-18T11:08:53.937Z,75.23
2017-11-18T11:11:21.428Z,86.27
2017-11-18T11:13:48.886Z,82.03
2017-11-18T11:16:16.390Z,114.13
2017-11-18T11:21:16.594Z,86.40
2017-11-18T11:23:44.072Z,97.83
2017-11-18T11:26:11.564Z,98.23
2017-11-18T11:28:39.052Z,84.93
2017-11-18T11:31:06.538Z,109.27
2017-11-18T11:33:34.010Z,96.90
2017-11-18T11:36:01.493Z,95.17
2017-11-18T11:38:28.978Z,94.60
2017-11-18T11:40:56.439Z,88.27
2017-11-18T11:43:24.871Z,88.53
2017-11-18T11:45:52.355Z,110.40
2017-11-18T11:48:19.813Z,116.33
2017-11-18T11:50:47.306Z,108.20
2017-11-18T11:53:14.788Z,100.17
2017-11-18T11:55:42.249Z,95.40
2017-11-18T11:58:09.723Z,116.93
2017-11-18T12:00:37.246Z,131.45
2017-11-18T12:03:04.716Z,102.20
2017-11-18T12:05:32.170Z,109.37
2017-11-18T12:07:59.654Z,106.90
2017-11-18T12:10:27.111Z,78.70
2017-11-18T12:12:54.616Z,91.50
2017-11-18T12:15:22.095Z,115.95
2017-11-18T12:17:49.566Z,105.37
2017-11-18T12:20:17.283Z,101.80
2017-11-18T12:22:44.747Z,99.80
2017-11-18T12:25:12.212Z,92.80
2017-11-18T12:27:39.707Z,101.15
2017-11-18T12:30:07.195Z,89.93
2017-11-18T12:32:34.694Z,94.53
2017-11-18T12:35:02.355Z,107.07
2017-11-18T12:37:29.824Z,94.17
2017-11-18T12:39:57.279Z,88.27
2017-11-18T12:42:24.772Z,82.13
2017-11-18T12:44:52.234Z,80.05
2017-11-18T12:47:19.714Z,99.43
2017-11-18T12:49:47.203Z,96.17
2017-11-18T12:52:14.662Z,96.37
2017-11-18T12:54:42.151Z,96.50
2017-11-18T12:57:09.632Z,78.90
2017-11-18T12:59:37.095Z,112.57
2017-11-18T13:02:04.586Z,108.77
2017-11-18T13:04:32.047Z,80.83
2017-11-18T13:06:59.544Z,96.67
2017-11-18T13:09:27.010Z,74.27
2017-11-18T13:11:54.477Z,82.43
2017-11-18T13:14:21.982Z,119.37
2017-11-18T13:16:49.446Z,72.53
2017-11-18T13:19:16.934Z,110.30
2017-11-18T13:21:44.395Z,66.33
2017-11-18T13:24:11.884Z,101.40
2017-11-18T13:26:39.360Z,122.73
2017-11-18T13:29:06.847Z,105.77
2017-11-18T13:31:34.312Z,108.97
2017-11-18T13:34:01.769Z,98.37
2017-11-18T13:36:29.247Z,98.17
2017-11-18T13:38:56.701Z,77.87
2017-11-18T13:41:24.159Z,106.17
2017-11-18T13:43:51.680Z,92.83
2017-11-18T13:46:19.139Z,70.43
2017-11-18T13:48:46.643Z,84.70
2017-11-18T13:51:14.111Z,79.83
2017-11-18T13:53:41.602Z,110.77
2017-11-18T13:56:09.074Z,91.70
2017-11-18T13:58:36.571Z,64.93
2017-11-18T14:01:04.046Z,87.83
2017-11-18T14:03:31.519Z,77.53
2017-11-18T14:05:59.292Z,102.10
2017-11-18T14:08:26.751Z,99.83
2017-11-18T14:10:54.223Z,103.03
2017-11-18T14:13:21.738Z,101.17
2017-11-18T14:15:49.231Z,90.93
2017-11-18T14:18:16.711Z,114.83
2017-11-18T14:20:44.191Z,93.97
2017-11-18T14:23:11.654Z,92.63
2017-11-18T14:25:39.152Z,108.33
2017-11-18T14:28:06.613Z,81.90
2017-11-18T14:30:34.073Z,84.33
2017-11-18T14:33:01.556Z,68.70
2017-11-18T14:35:29.016Z,69.87
2017-11-18T14:37:56.509Z,74.20
2017-11-18T14:40:24.008Z,70.83
2017-11-18T14:42:51.459Z,64.90
2017-11-18T14:45:18.959Z,51.97
2017-11-18T14:47:46.441Z,62.63
2017-11-18T14:50:13.926Z,60.67
2017-11-18T14:52:41.388Z,53.10
2017-11-18T14:55:08.869Z,49.47
2017-11-18T14:57:36.351Z,73.10
2017-11-18T15:00:03.817Z,50.77
2017-11-18T15:02:31.298Z,26.87
2017-11-18T15:04:58.758Z,35.13
2017-11-18T15:07:26.257Z,37.30
2017-11-18T15:09:53.709Z,34.67
2017-11-18T15:12:21.200Z,25.80
2017-11-18T15:14:52.270Z,42.77
2017-11-18T15:17:25.167Z,44.87
2017-11-18T15:20:00.595Z,38.43
2017-11-18T15:25:37.036Z,49.77
2017-11-18T15:28:06.463Z,47.67
2017-11-18T15:33:39.893Z,46.37
2017-11-18T15:36:17.336Z,34.33
2017-11-18T15:38:46.211Z,46.63
2017-11-18T15:41:13.681Z,36.33
2017-11-18T15:47:06.898Z,49.20
2017-11-18T15:49:39.890Z,38.37
2017-11-18T15:52:09.196Z,41.30
2017-11-18T15:54:54.409Z,42.47
2017-11-18T15:57:21.892Z,57.83
2017-11-18T15:59:52.334Z,45.93
2017-11-18T16:02:20.279Z,38.77
2017-11-18T16:04:48.162Z,40.83
2017-11-18T16:07:16.157Z,41.70
2017-11-18T16:09:43.676Z,24.77
2017-11-18T16:12:11.166Z,42.77
2017-11-18T16:14:38.649Z,41.83
2017-11-18T16:17:06.131Z,39.20
2017-11-18T16:19:33.589Z,46.03
2017-11-18T16:22:01.073Z,37.47
2017-11-18T16:24:28.525Z,35.83
2017-11-18T16:26:56.005Z,40.33
2017-11-18T16:29:23.492Z,32.37
2017-11-18T16:31:50.957Z,38.33
2017-11-18T16:34:18.420Z,50.13
2017-11-18T16:36:45.907Z,45.33
2017-11-18T16:39:13.368Z,28.83
2017-11-18T16:41:40.949Z,42.77
2017-11-18T16:44:08.379Z,40.30
2017-11-18T16:46:35.859Z,46.57
2017-11-18T16:49:03.336Z,37.73
2017-11-18T16:51:30.820Z,50.07
2017-11-18T16:53:58.303Z,34.97
2017-11-18T16:56:25.810Z,34.60
2017-11-18T16:58:53.701Z,49.57
2017-11-18T17:01:21.166Z,39.37
2017-11-18T17:03:48.630Z,46.13
2017-11-18T17:06:16.121Z,41.73
2017-11-18T17:08:43.630Z,48.70
2017-11-18T17:11:11.114Z,36.53
2017-11-18T17:13:38.572Z,37.43
2017-11-18T17:16:06.080Z,54.50
2017-11-18T17:18:33.549Z,33.60
2017-11-18T17:21:01.018Z,22.83
2017-11-18T17:23:28.514Z,26.67
2017-11-18T17:25:56.005Z,27.10
2017-11-18T17:28:23.509Z,30.73
2017-11-18T17:30:50.975Z,39.07
2017-11-18T17:33:21.806Z,26.60
2017-11-18T17:35:49.380Z,38.00
2017-11-18T17:38:17.135Z,30.33
2017-11-18T17:40:44.591Z,25.87
2017-11-18T17:43:12.076Z,45.67
2017-11-18T17:45:39.546Z,22.43
2017-11-18T17:48:07.181Z,33.00
2017-11-18T17:50:34.633Z,28.60
2017-11-18T17:53:02.122Z,48.80
2017-11-18T17:55:29.588Z,27.80
2017-11-18T17:57:57.048Z,22.83
2017-11-18T18:00:24.528Z,28.17
2017-11-18T18:02:51.990Z,29.93
2017-11-18T18:05:19.480Z,22.57
2017-11-18T18:07:46.935Z,31.20
2017-11-18T18:10:14.424Z,19.03
2017-11-18T18:12:41.899Z,35.53
2017-11-18T18:15:09.375Z,25.17
2017-11-18T18:17:36.870Z,32.93
2017-11-18T18:20:04.360Z,24.77
2017-11-18T18:22:31.843Z,22.67
2017-11-18T18:24:59.312Z,25.70
2017-11-18T18:27:26.808Z,16.13
2017-11-18T18:29:54.271Z,18.53
2017-11-18T18:32:21.732Z,23.57
2017-11-18T18:34:49.213Z,19.80
2017-11-18T18:37:16.666Z,21.93
2017-11-18T18:39:44.138Z,17.77
2017-11-18T18:42:11.598Z,15.60
2017-11-18T18:44:39.086Z,16.33
2017-11-18T18:47:06.587Z,32.43
2017-11-18T18:49:34.038Z,21.83
2017-11-18T18:52:01.511Z,11.50
2017-11-18T18:54:29.007Z,22.73
2017-11-18T18:56:56.463Z,18.93
2017-11-18T18:59:23.942Z,18.70
2017-11-18T19:01:51.405Z,19.67
2017-11-18T19:04:18.862Z,17.13
2017-11-18T19:06:46.344Z,18.17
2017-11-18T19:09:13.836Z,16.63
2017-11-18T19:11:41.335Z,19.70
2017-11-18T19:14:08.787Z,41.27
2017-11-18T19:16:36.400Z,11.53
2017-11-18T19:19:03.932Z,15.30
2017-11-18T19:21:31.400Z,16.77
2017-11-18T19:23:58.854Z,19.20
2017-11-18T19:26:26.327Z,13.90
2017-11-18T19:28:53.954Z,11.80
2017-11-18T19:31:21.484Z,13.97
2017-11-18T19:33:48.972Z,22.58
2017-11-18T19:36:16.469Z,18.23
2017-11-18T19:38:43.973Z,19.73
2017-11-18T19:41:11.475Z,21.03
2017-11-18T19:43:39.097Z,22.40
2017-11-18T19:46:06.599Z,22.92
2017-11-18T19:48:34.076Z,24.42
2017-11-18T19:51:01.771Z,16.97
2017-11-18T19:53:29.269Z,23.83
2017-11-18T19:55:56.794Z,19.13
2017-11-18T19:58:24.342Z,19.93
2017-11-18T20:00:51.829Z,24.70
2017-11-18T20:03:19.307Z,14.60
2017-11-18T20:05:46.846Z,15.47
2017-11-18T20:08:14.362Z,18.83
2017-11-18T20:10:42.008Z,23.55
2017-11-18T20:13:09.492Z,23.33
2017-11-18T20:15:36.992Z,14.77
2017-11-18T20:18:04.462Z,23.67
2017-11-18T20:20:31.952Z,25.52
2017-11-18T20:23:00.619Z,14.50
2017-11-18T20:25:28.083Z,13.40
2017-11-18T20:27:55.757Z,22.77
2017-11-18T20:30:23.346Z,14.20
2017-11-18T20:32:50.806Z,14.40
2017-11-18T20:35:18.288Z,19.87
2017-11-18T20:37:45.782Z,20.95
2017-11-18T20:40:13.320Z,15.70
2017-11-18T20:42:41.127Z,11.90
2017-11-18T20:45:08.599Z,15.57
2017-11-18T20:47:36.058Z,19.53
2017-11-18T20:50:03.568Z,19.30
2017-11-18T20:52:31.057Z,22.30
2017-11-18T20:54:58.520Z,15.43
2017-11-18T20:57:25.973Z,17.00
2017-11-18T20:59:53.453Z,11.03
2017-11-18T21:02:20.938Z,13.02
2017-11-18T21:04:48.405Z,19.23
2017-11-18T21:07:15.900Z,12.53
2017-11-18T21:09:43.363Z,14.30
2017-11-18T21:12:10.826Z,8.33
2017-11-18T21:14:38.318Z,18.02
2017-11-18T21:17:05.773Z,12.70
2017-11-18T21:19:33.248Z,13.98
2017-11-18T21:22:00.704Z,14.47
2017-11-18T21:24:28.183Z,22.87
2017-11-18T21:26:55.643Z,14.30
2017-11-18T21:29:23.118Z,11.20
2017-11-18T21:31:50.610Z,14.20
2017-11-18T21:34:18.062Z,14.15
2017-11-18T21:36:45.523Z,14.40
2017-11-18T21:39:12.988Z,11.50
2017-11-18T21:41:40.444Z,9.97
2017-11-18T21:44:07.940Z,17.08
2017-11-18T21:46:35.423Z,10.37
2017-11-18T21:49:02.907Z,14.90
2017-11-18T21:51:30.385Z,15.68
2017-11-18T21:53:57.861Z,14.93
2017-11-18T21:56:25.335Z,14.70
2017-11-18T21:58:52.785Z,14.27
2017-11-18T22:01:20.250Z,11.15
2017-11-18T22:03:47.702Z,11.35
2017-11-18T22:06:15.185Z,10.65
2017-11-18T22:08:42.675Z,14.70
2017-11-18T22:11:10.139Z,27.40
2017-11-18T22:13:37.625Z,13.45
2017-11-18T22:16:05.230Z,14.45
2017-11-18T22:18:32.716Z,12.27
2017-11-18T22:21:00.167Z,12.03
2017-11-18T22:23:27.679Z,11.83
2017-11-18T22:25:55.147Z,8.80
2017-11-18T22:28:22.596Z,9.33
2017-11-18T22:30:50.070Z,11.20
2017-11-18T22:33:17.517Z,7.03
2017-11-18T22:35:45.007Z,13.20
2017-11-18T22:38:12.463Z,13.33
2017-11-18T22:40:39.906Z,9.47
2017-11-18T22:43:07.379Z,16.60
2017-11-18T22:45:34.826Z,9.67
2017-11-18T22:48:02.314Z,12.03
2017-11-18T22:50:29.804Z,31.90
2017-11-18T22:52:57.268Z,17.87
2017-11-18T22:55:24.749Z,9.80
2017-11-18T22:57:52.227Z,17.20
2017-11-18T23:03:19.498Z,18.20
2017-11-18T23:05:46.980Z,14.70
2017-11-18T23:08:14.461Z,13.40
2017-11-18T23:10:41.920Z,11.37
2017-11-18T23:19:52.547Z,28.23
2017-11-18T23:22:20.012Z,9.90
2017-11-18T23:24:47.487Z,11.07
2017-11-18T23:27:14.949Z,16.20
2017-11-18T23:29:42.431Z,37.70
2017-11-18T23:32:09.907Z,19.07
2017-11-18T23:34:37.362Z,11.57
2017-11-18T23:37:04.835Z,10.70
2017-11-18T23:39:32.284Z,10.50
2017-11-18T23:41:59.758Z,8.53
2017-11-18T23:44:27.215Z,15.80
2017-11-18T23:46:54.663Z,10.80
2017-11-18T23:49:22.144Z,16.00
2017-11-18T23:51:49.598Z,11.37
2017-11-18T23:54:17.070Z,9.53
2017-11-18T23:56:44.740Z,9.00
2017-11-18T23:59:12.211Z,8.77
